Time;durP1;ratioP1;P1;durP2;ratioP2;P2;SDS_P1;SDS_P2;PMS_P1;PMS_P2;Temp;Humidity;BMP_temperature;BMP_pressure;BME280_temperature;BME280_humidity;BME280_pressure;Samples;Min_cycle;Max_cycle;Signal;HPM_P1;HPM_P2
2022/06/18 00:01:12;;;;;;;3.90;1.75;;;20.60;71.70;;;;;;6944139;28;20132;-79
2022/06/18 00:04:34;;;;;;;6.28;1.90;;;20.50;72.30;;;;;;6944768;28;20083;-78
2022/06/18 00:07:57;;;;;;;4.33;1.97;;;20.40;72.70;;;;;;6944036;28;20518;-80
2022/06/18 00:14:56;;;;;;;4.50;2.08;;;20.20;74.30;;;;;;6903878;28;20041;-79
2022/06/18 00:18:18;;;;;;;4.70;2.20;;;20.10;74.50;;;;;;6943997;28;20065;-77
2022/06/18 00:21:41;;;;;;;4.10;1.85;;;20.10;75.30;;;;;;6944740;28;20497;-80
2022/06/18 00:25:18;;;;;;;5.60;2.45;;;20.10;75.60;;;;;;6944185;28;20045;-79
2022/06/18 00:28:40;;;;;;;3.90;1.75;;;20.10;76.00;;;;;;6944567;28;20100;-80
2022/06/18 00:32:04;;;;;;;3.38;1.88;;;20.20;76.20;;;;;;6945187;28;20076;-81
2022/06/18 00:35:26;;;;;;;3.00;1.80;;;20.20;75.90;;;;;;6944977;28;20096;-78
2022/06/18 00:38:49;;;;;;;4.55;1.70;;;20.30;76.50;;;;;;6943935;28;20048;-79
2022/06/18 00:42:27;;;;;;;3.85;1.77;;;20.30;76.60;;;;;;6943011;28;20077;-78
2022/06/18 00:45:52;;;;;;;3.65;1.60;;;20.40;76.90;;;;;;6942533;28;20049;-80
2022/06/18 00:49:22;;;;;;;4.20;2.00;;;20.50;76.90;;;;;;6944339;28;20588;-80
2022/06/18 00:52:50;;;;;;;4.97;1.85;;;20.40;77.10;;;;;;6943407;28;20077;-80
2022/06/18 00:56:19;;;;;;;3.35;1.70;;;20.40;77.30;;;;;;6928351;28;20529;-80
2022/06/18 00:59:48;;;;;;;3.90;1.70;;;20.40;77.10;;;;;;6943963;28;20057;-79
2022/06/18 01:03:25;;;;;;;2.88;1.70;;;20.30;77.40;;;;;;6951903;28;20042;-79
2022/06/18 01:06:49;;;;;;;3.38;1.60;;;19.90;78.50;;;;;;6949264;28;20483;-77
2022/06/18 01:10:18;;;;;;;3.70;1.85;;;19.80;79.50;;;;;;6928393;28;20050;-77
2022/06/18 01:13:41;;;;;;;3.10;1.60;;;19.90;79.70;;;;;;6943642;28;20041;-76
2022/06/18 01:17:06;;;;;;;4.22;1.90;;;19.80;79.60;;;;;;6942914;28;20077;-79
2022/06/18 01:20:28;;;;;;;4.90;1.70;;;19.60;80.10;;;;;;6941725;28;20069;-78
2022/06/18 01:23:57;;;;;;;3.05;1.70;;;19.60;80.80;;;;;;6942103;28;20045;-77
2022/06/18 01:27:21;;;;;;;3.42;1.58;;;19.40;81.30;;;;;;6927776;28;20084;-79
2022/06/18 01:30:44;;;;;;;3.88;1.60;;;19.40;82.10;;;;;;6941810;28;20127;-79
2022/06/18 01:34:07;;;;;;;3.33;1.92;;;19.60;82.30;;;;;;6942533;28;20052;-79
2022/06/18 01:37:29;;;;;;;4.03;1.80;;;19.50;82.00;;;;;;6942781;28;20046;-79
2022/06/18 01:40:56;;;;;;;3.88;1.85;;;19.70;82.30;;;;;;6941761;28;20084;-78
2022/06/18 01:44:30;;;;;;;3.20;1.70;;;19.70;82.20;;;;;;6935416;28;20491;-78
2022/06/18 01:47:57;;;;;;;3.67;1.70;;;19.60;82.20;;;;;;6941682;28;20061;-78
2022/06/18 01:51:24;;;;;;;4.35;1.98;;;19.30;83.10;;;;;;6942501;28;20497;-76
2022/06/18 01:54:52;;;;;;;3.75;1.73;;;19.10;84.10;;;;;;6943477;28;20054;-78
2022/06/18 01:58:18;;;;;;;3.95;1.90;;;18.80;85.90;;;;;;6941124;28;20084;-79
2022/06/18 02:01:45;;;;;;;3.88;1.88;;;18.80;86.30;;;;;;6940576;28;20084;-76
2022/06/18 02:05:09;;;;;;;4.40;2.55;;;18.70;87.50;;;;;;6942924;28;20079;-77
2022/06/18 02:08:31;;;;;;;4.72;1.95;;;18.70;88.70;;;;;;6941468;28;20098;-77
2022/06/18 02:11:54;;;;;;;5.72;2.40;;;18.60;88.80;;;;;;6941261;28;20046;-77
2022/06/18 02:15:22;;;;;;;5.00;2.63;;;18.50;89.50;;;;;;6941621;28;20095;-78
2022/06/18 02:18:48;;;;;;;3.90;2.20;;;18.50;89.60;;;;;;6942031;28;20498;-79
2022/06/18 02:22:11;;;;;;;4.30;2.00;;;18.60;89.70;;;;;;6941075;28;20045;-80
2022/06/18 02:25:34;;;;;;;4.28;2.13;;;18.60;90.00;;;;;;6939671;28;20127;-79
2022/06/18 02:28:58;;;;;;;4.82;1.90;;;18.60;90.10;;;;;;6940455;28;20092;-78
2022/06/18 02:32:26;;;;;;;4.88;1.85;;;18.70;90.20;;;;;;6942972;28;20041;-77
2022/06/18 02:35:49;;;;;;;3.33;1.88;;;18.80;90.10;;;;;;6941062;28;20572;-77
2022/06/18 02:39:23;;;;;;;3.45;1.90;;;18.90;90.40;;;;;;6919141;28;20041;-77
2022/06/18 02:42:46;;;;;;;3.70;2.00;;;18.80;90.10;;;;;;6942946;28;20089;-77
2022/06/18 02:46:09;;;;;;;3.38;1.88;;;18.90;90.30;;;;;;6942604;28;20071;-78
2022/06/18 02:49:31;;;;;;;;;;;18.90;90.20;;;;;;6941874;28;20053;-80
2022/06/18 02:53:00;;;;;;;3.20;1.80;;;19.00;90.30;;;;;;6940122;28;19921;-80
2022/06/18 02:56:22;;;;;;;5.10;2.03;;;19.00;90.20;;;;;;6940692;28;20049;-81
2022/06/18 02:59:44;;;;;;;2.93;1.73;;;19.00;90.40;;;;;;6940482;28;20487;-78
2022/06/18 03:03:10;;;;;;;4.80;2.05;;;19.00;90.20;;;;;;6940284;28;20080;-78
2022/06/18 03:06:34;;;;;;;4.28;2.10;;;19.00;90.40;;;;;;6940768;28;20053;-80
2022/06/18 03:13:38;;;;;;;3.23;1.73;;;18.90;90.60;;;;;;6939426;28;20053;-80
2022/06/18 03:17:00;;;;;;;3.28;1.90;;;19.00;90.60;;;;;;6940539;28;20049;-77
2022/06/18 03:20:28;;;;;;;3.33;1.67;;;18.80;90.50;;;;;;6940962;28;20095;-79
2022/06/18 03:23:50;;;;;;;2.63;1.52;;;18.90;90.60;;;;;;6939901;28;20048;-80
2022/06/18 03:27:16;;;;;;;4.77;2.07;;;18.90;90.80;;;;;;6939557;28;20037;-77
2022/06/18 03:30:39;;;;;;;4.55;1.90;;;18.90;90.80;;;;;;6941143;28;20092;-81
2022/06/18 03:34:01;;;;;;;;;;;18.90;90.90;;;;;;6943509;28;20045;-81
2022/06/18 03:37:23;;;;;;;4.30;1.80;;;18.70;91.00;;;;;;6945314;28;19954;-80
2022/06/18 03:40:51;;;;;;;3.30;1.80;;;18.70;91.30;;;;;;6944745;28;20041;-78
2022/06/18 03:44:15;;;;;;;4.10;1.90;;;18.70;91.50;;;;;;6944996;28;20312;-81
2022/06/18 03:47:37;;;;;;;3.75;1.90;;;18.70;91.40;;;;;;6943912;28;20099;-80
2022/06/18 03:50:59;;;;;;;4.78;1.73;;;18.70;91.40;;;;;;6945171;28;20079;-79
2022/06/18 03:54:22;;;;;;;3.30;1.80;;;18.70;91.40;;;;;;6944895;28;20048;-81
2022/06/18 03:57:45;;;;;;;3.63;1.58;;;18.70;91.50;;;;;;6945606;28;20311;-81
2022/06/18 04:01:09;;;;;;;3.90;1.77;;;18.70;91.50;;;;;;6943156;28;20056;-80
2022/06/18 04:04:31;;;;;;;3.67;1.80;;;18.60;91.60;;;;;;6950978;28;20049;-77
2022/06/18 04:07:54;;;;;;;5.20;2.00;;;18.60;91.80;;;;;;6945537;28;20084;-78
2022/06/18 04:11:16;;;;;;;5.40;1.85;;;18.70;91.60;;;;;;6945171;28;20041;-78
2022/06/18 04:14:38;;;;;;;3.38;1.65;;;18.80;91.60;;;;;;6945961;28;20056;-77
2022/06/18 04:18:02;;;;;;;4.80;1.90;;;18.80;91.60;;;;;;6943566;28;20087;-79
2022/06/18 04:21:24;;;;;;;5.68;1.98;;;18.80;91.70;;;;;;6943537;28;20054;-80
2022/06/18 04:24:46;;;;;;;3.97;1.70;;;18.90;91.80;;;;;;6944621;28;20142;-82
2022/06/18 04:28:09;;;;;;;4.20;1.90;;;19.00;91.70;;;;;;6943461;28;20410;-81
2022/06/18 04:31:31;;;;;;;3.78;1.83;;;19.00;91.80;;;;;;6943136;28;20308;-81
2022/06/18 04:34:55;;;;;;;2.97;1.48;;;18.90;91.80;;;;;;6943904;28;20100;-78
2022/06/18 04:38:17;;;;;;;4.43;1.98;;;18.90;91.90;;;;;;6943988;28;20497;-80
2022/06/18 04:41:39;;;;;;;3.47;1.80;;;19.00;92.00;;;;;;6943550;28;20041;-79
2022/06/18 04:45:01;;;;;;;4.40;2.30;;;19.00;91.90;;;;;;6943564;28;20307;-78
2022/06/18 04:48:24;;;;;;;5.63;2.45;;;19.10;92.00;;;;;;6943954;28;20088;-79
2022/06/18 04:51:48;;;;;;;;;;;19.20;92.00;;;;;;6943018;28;20098;-77
2022/06/18 04:55:10;;;;;;;4.30;2.17;;;19.30;91.80;;;;;;6943368;28;19927;-80
2022/06/18 04:58:32;;;;;;;5.75;2.20;;;19.40;91.60;;;;;;6942622;28;20069;-79
2022/06/18 05:02:01;;;;;;;5.05;2.33;;;19.40;91.50;;;;;;6941685;28;20084;-80
2022/06/18 05:05:27;;;;;;;4.15;2.05;;;19.40;91.50;;;;;;6938450;28;20072;-79
2022/06/18 05:08:50;;;;;;;4.72;2.20;;;19.40;91.50;;;;;;6933924;28;20046;-78
2022/06/18 05:12:12;;;;;;;4.45;2.10;;;19.30;91.80;;;;;;6934450;28;20073;-78
2022/06/18 05:15:36;;;;;;;3.78;1.90;;;19.20;92.30;;;;;;6941636;28;20132;-78
2022/06/18 05:18:58;;;;;;;3.85;1.95;;;19.10;92.40;;;;;;6941749;28;20050;-78
2022/06/18 05:22:21;;;;;;;5.10;2.08;;;19.30;92.60;;;;;;6944074;28;20073;-80
2022/06/18 05:25:45;;;;;;;3.65;1.98;;;19.40;92.60;;;;;;6940143;28;20092;-77
2022/06/18 05:29:07;;;;;;;4.93;2.13;;;19.40;92.70;;;;;;6942260;28;20095;-79
2022/06/18 05:32:29;;;;;;;3.87;2.00;;;19.60;92.70;;;;;;6942475;28;20507;-78
2022/06/18 05:35:51;;;;;;;5.77;2.20;;;19.70;91.90;;;;;;6942378;28;20045;-81
2022/06/18 05:39:17;;;;;;;5.33;2.27;;;19.80;91.40;;;;;;6942561;28;20300;-78
2022/06/18 05:42:42;;;;;;;3.67;2.20;;;19.90;90.60;;;;;;6940099;28;20332;-80
2022/06/18 05:46:04;;;;;;;4.40;2.00;;;20.00;90.00;;;;;;6934147;28;20049;-80
2022/06/18 05:49:26;;;;;;;3.65;2.03;;;19.90;90.10;;;;;;6944041;28;20063;-79
2022/06/18 05:52:49;;;;;;;3.55;2.10;;;20.00;90.30;;;;;;6945076;28;20057;-78
2022/06/18 05:56:11;;;;;;;;;;;20.00;90.30;;;;;;6938494;28;20088;-79
2022/06/18 05:59:34;;;;;;;;;;;20.20;89.90;;;;;;6941860;28;19963;-78
2022/06/18 06:02:57;;;;;;;5.57;2.28;;;20.40;89.90;;;;;;6940521;28;19960;-80
2022/06/18 06:06:19;;;;;;;4.07;2.10;;;20.40;88.90;;;;;;6941434;28;20045;-78
2022/06/18 06:13:22;;;;;;;6.15;2.00;;;20.50;89.10;;;;;;6940797;28;20049;-81
2022/06/18 06:16:46;;;;;;;3.58;2.17;;;20.50;88.90;;;;;;6941373;28;20053;-79
2022/06/18 06:20:17;;;;;;;4.95;2.10;;;20.50;88.10;;;;;;6940966;28;20088;-81
2022/06/18 06:23:40;;;;;;;4.30;2.28;;;20.70;88.90;;;;;;6940791;28;20073;-82
2022/06/18 06:27:02;;;;;;;9.82;2.65;;;20.70;89.90;;;;;;6943505;28;20085;-81
2022/06/18 06:30:24;;;;;;;4.97;2.58;;;20.90;90.50;;;;;;6957125;28;20041;-84
2022/06/18 06:33:48;;;;;;;4.95;2.60;;;21.00;97.20;;;;;;6943731;28;20089;-88
2022/06/18 06:37:10;;;;;;;6.18;2.55;;;20.80;99.90;;;;;;6928258;28;20113;-89
2022/06/18 06:40:34;;;;;;;4.97;2.22;;;20.80;96.80;;;;;;6944546;28;20133;-89
2022/06/18 06:43:56;;;;;;;4.72;2.53;;;20.90;94.40;;;;;;6946402;28;20049;-88
2022/06/18 06:47:19;;;;;;;4.22;2.28;;;21.10;93.60;;;;;;6944261;28;20084;-85
2022/06/18 06:50:42;;;;;;;;;;;21.10;90.80;;;;;;6954536;28;20053;-91
2022/06/18 06:54:05;;;;;;;3.78;2.17;;;21.20;91.50;;;;;;6944839;28;20135;-84
2022/06/18 06:57:27;;;;;;;4.13;2.22;;;21.30;90.50;;;;;;6935914;28;20060;-84
2022/06/18 07:00:52;;;;;;;4.63;2.05;;;21.40;90.10;;;;;;6940139;28;20049;-82
2022/06/18 07:04:15;;;;;;;4.18;2.22;;;21.40;90.10;;;;;;6937776;28;20132;-84
2022/06/18 07:07:38;;;;;;;5.50;2.20;;;21.50;89.60;;;;;;6934065;28;20497;-83
2022/06/18 07:11:00;;;;;;;4.47;2.50;;;21.60;88.90;;;;;;6936990;28;20088;-81
2022/06/18 07:14:22;;;;;;;3.40;2.20;;;21.70;88.90;;;;;;6937424;28;20037;-85
2022/06/18 07:17:44;;;;;;;9.18;2.35;;;21.80;88.50;;;;;;6945977;28;20049;-83
2022/06/18 07:21:15;;;;;;;6.65;2.88;;;21.90;88.50;;;;;;6944792;28;20060;-84
2022/06/18 07:24:39;;;;;;;4.70;2.50;;;21.90;86.90;;;;;;6944737;28;20506;-86
2022/06/18 07:28:01;;;;;;;3.72;2.10;;;22.10;86.30;;;;;;6946485;28;20462;-86
2022/06/18 07:31:28;;;;;;;4.28;2.17;;;22.20;87.10;;;;;;6946588;28;20100;-86
2022/06/18 07:34:53;;;;;;;4.22;2.58;;;22.30;86.60;;;;;;6945852;28;20045;-84
2022/06/18 07:38:15;;;;;;;5.32;2.40;;;22.40;86.50;;;;;;6939699;28;20103;-85
2022/06/18 07:41:43;;;;;;;3.50;2.22;;;22.50;86.20;;;;;;6944992;28;20493;-86
2022/06/18 07:45:14;;;;;;;4.70;2.10;;;22.60;87.40;;;;;;6943917;28;20084;-83
2022/06/18 07:48:39;;;;;;;5.25;1.88;;;22.70;86.80;;;;;;6945429;28;20076;-84
2022/06/18 07:52:01;;;;;;;3.80;2.10;;;22.80;86.20;;;;;;6944981;28;20452;-84
2022/06/18 07:55:27;;;;;;;4.40;2.00;;;22.90;87.00;;;;;;6944979;28;20091;-79
2022/06/18 07:58:51;;;;;;;7.07;2.42;;;23.00;85.90;;;;;;6944568;28;20056;-82
2022/06/18 08:02:13;;;;;;;9.40;3.90;;;23.10;85.80;;;;;;6938641;28;20081;-83
2022/06/18 08:05:35;;;;;;;8.15;2.90;;;23.20;86.20;;;;;;6944508;28;20045;-81
2022/06/18 08:08:57;;;;;;;6.25;2.55;;;23.40;85.30;;;;;;6952262;28;20049;-83
2022/06/18 08:12:20;;;;;;;7.15;2.60;;;23.50;85.20;;;;;;6956184;28;20045;-79
2022/06/18 08:15:48;;;;;;;5.75;2.63;;;23.60;84.10;;;;;;6955534;28;20085;-78
2022/06/18 08:19:10;;;;;;;5.50;2.35;;;23.70;83.30;;;;;;6956598;28;20053;-78
2022/06/18 08:22:33;;;;;;;6.20;2.22;;;23.80;83.00;;;;;;6950318;28;20049;-80
2022/06/18 08:25:56;;;;;;;6.40;2.65;;;23.90;81.50;;;;;;6947156;28;20442;-79
2022/06/18 08:29:22;;;;;;;5.30;2.30;;;23.90;81.30;;;;;;6945394;28;20053;-80
2022/06/18 08:32:46;;;;;;;5.32;2.45;;;24.00;81.50;;;;;;6945367;28;20411;-81
2022/06/18 08:36:14;;;;;;;4.88;2.67;;;24.10;78.40;;;;;;6944657;28;20057;-82
2022/06/18 08:39:38;;;;;;;5.82;2.38;;;24.30;77.50;;;;;;6945640;28;20053;-76
2022/06/18 08:43:15;;;;;;;3.95;2.20;;;24.40;76.40;;;;;;6952268;28;20410;-84
2022/06/18 08:46:48;;;;;;;5.40;2.20;;;24.50;77.30;;;;;;6947795;28;20140;-79
2022/06/18 08:50:30;;;;;;;5.57;2.50;;;24.60;78.20;;;;;;6943765;28;20085;-80
2022/06/18 08:54:28;;;;;;;5.45;2.53;;;24.80;74.40;;;;;;6942791;28;20045;-79
2022/06/18 08:58:01;;;;;;;4.22;2.45;;;24.90;76.00;;;;;;6944196;28;20407;-79
2022/06/18 09:01:31;;;;;;;5.65;2.00;;;25.00;75.70;;;;;;6944688;28;20080;-78
2022/06/18 09:05:12;;;;;;;3.35;2.17;;;25.00;75.60;;;;;;6944580;28;20041;-81
2022/06/18 09:08:53;;;;;;;5.20;2.23;;;25.10;75.60;;;;;;6944287;28;20483;-78
2022/06/18 09:12:21;;;;;;;3.33;2.00;;;25.30;73.40;;;;;;6944450;28;20100;-80
2022/06/18 09:15:48;;;;;;;3.78;2.28;;;25.50;68.90;;;;;;6944410;28;20052;-80
2022/06/18 09:19:17;;;;;;;4.03;2.30;;;25.60;68.90;;;;;;6944088;28;20515;-79
2022/06/18 09:22:45;;;;;;;5.25;2.47;;;25.70;68.70;;;;;;6944191;28;20049;-79
2022/06/18 09:26:18;;;;;;;3.45;2.00;;;25.70;68.30;;;;;;6943764;28;20104;-78
2022/06/18 09:29:47;;;;;;;3.33;2.00;;;25.80;66.80;;;;;;6943204;28;20053;-80
2022/06/18 09:33:13;;;;;;;6.22;2.30;;;25.90;67.00;;;;;;6943846;28;20488;-79
2022/06/18 09:36:42;;;;;;;5.35;2.00;;;26.00;66.90;;;;;;6943747;28;20091;-80
2022/06/18 09:40:13;;;;;;;5.53;2.03;;;26.10;66.70;;;;;;6943514;28;20049;-79
2022/06/18 09:43:43;;;;;;;3.83;1.93;;;26.30;65.50;;;;;;6943559;28;20046;-80
2022/06/18 09:47:10;;;;;;;4.32;2.40;;;26.30;64.50;;;;;;6943453;28;20307;-80
2022/06/18 09:50:38;;;;;;;5.25;2.08;;;26.30;64.20;;;;;;6943072;28;20060;-79
2022/06/18 09:54:06;;;;;;;4.38;2.28;;;26.40;65.20;;;;;;6943237;28;20057;-78
2022/06/18 09:57:34;;;;;;;4.07;1.80;;;26.50;64.10;;;;;;6943265;28;20052;-79
2022/06/18 10:00:59;;;;;;;4.10;2.00;;;26.70;64.30;;;;;;6943088;28;20434;-79
2022/06/18 10:08:11;;;;;;;3.55;1.88;;;26.90;63.50;;;;;;6942862;28;20136;-78
2022/06/18 10:11:34;;;;;;;3.80;1.90;;;27.00;64.30;;;;;;6943307;28;20053;-79
2022/06/18 10:14:59;;;;;;;4.85;2.20;;;27.10;63.00;;;;;;6941309;28;20069;-78
2022/06/18 10:18:40;;;;;;;5.28;2.17;;;27.20;62.90;;;;;;6942601;28;20050;-78
2022/06/18 10:22:13;;;;;;;4.32;2.20;;;27.30;62.80;;;;;;6939578;28;20084;-78
2022/06/18 10:25:42;;;;;;;4.88;2.03;;;27.40;63.00;;;;;;6941745;28;20123;-79
2022/06/18 10:29:14;;;;;;;5.10;2.35;;;27.50;62.20;;;;;;6942089;28;20078;-79
2022/06/18 10:32:50;;;;;;;4.70;2.20;;;27.40;61.40;;;;;;6941292;28;20128;-79
2022/06/18 10:36:22;;;;;;;4.07;2.10;;;27.30;61.30;;;;;;6942052;28;20041;-79
2022/06/18 10:40:00;;;;;;;6.00;2.10;;;27.40;62.00;;;;;;6940731;28;20049;-78
2022/06/18 10:43:38;;;;;;;4.25;1.95;;;27.50;61.90;;;;;;6948510;28;20076;-78
2022/06/18 10:47:04;;;;;;;4.15;1.90;;;27.60;61.70;;;;;;6946478;28;20479;-78
2022/06/18 10:50:26;;;;;;;3.65;1.95;;;27.70;60.70;;;;;;6947804;28;20135;-79
2022/06/18 10:53:53;;;;;;;3.90;2.17;;;27.70;59.80;;;;;;6946783;28;20517;-79
2022/06/18 10:57:25;;;;;;;3.33;1.95;;;27.80;60.60;;;;;;6950077;28;20505;-79
2022/06/18 11:00:57;;;;;;;4.50;2.10;;;27.80;59.00;;;;;;6946808;28;20402;-77
2022/06/18 11:04:24;;;;;;;4.45;1.90;;;27.80;58.80;;;;;;6946044;28;20490;-78
2022/06/18 11:07:50;;;;;;;5.15;2.22;;;27.80;59.00;;;;;;6946148;28;20053;-80
2022/06/18 11:11:16;;;;;;;6.50;2.22;;;27.90;59.10;;;;;;6945000;28;20099;-79
2022/06/18 11:14:43;;;;;;;7.60;2.63;;;28.10;60.50;;;;;;6945552;28;20049;-80
2022/06/18 11:18:16;;;;;;;5.72;2.17;;;28.20;61.10;;;;;;6946751;28;20086;-79
2022/06/18 11:21:43;;;;;;;5.72;2.10;;;28.20;58.00;;;;;;6946937;28;20057;-80
2022/06/18 11:25:27;;;;;;;4.88;2.30;;;28.30;57.40;;;;;;6946019;28;20057;-80
2022/06/18 11:28:54;;;;;;;3.97;2.05;;;28.40;57.50;;;;;;6944592;28;20079;-78
2022/06/18 11:32:22;;;;;;;6.15;2.50;;;28.70;57.90;;;;;;6944425;28;20516;-77
2022/06/18 11:35:47;;;;;;;7.05;2.45;;;28.70;57.00;;;;;;6946085;28;20073;-79
2022/06/18 11:39:32;;;;;;;6.07;2.30;;;28.70;57.00;;;;;;6946386;28;20071;-77
2022/06/18 11:42:58;;;;;;;5.35;2.22;;;29.00;56.70;;;;;;6959770;28;20179;-77
2022/06/18 11:46:29;;;;;;;3.92;2.17;;;29.10;57.40;;;;;;6945723;28;20502;-78
2022/06/18 11:50:00;;;;;;;3.72;2.22;;;29.20;58.40;;;;;;6945983;28;20092;-77
2022/06/18 11:53:28;;;;;;;5.33;2.50;;;29.30;57.10;;;;;;6944446;28;20045;-79
2022/06/18 11:56:58;;;;;;;8.13;4.32;;;29.40;57.30;;;;;;6944573;28;20351;-76
2022/06/18 12:00:25;;;;;;;12.30;5.85;;;29.50;58.10;;;;;;6945439;28;20116;-77
2022/06/18 12:03:55;;;;;;;5.32;2.10;;;29.60;58.80;;;;;;6945162;28;20597;-78
2022/06/18 12:07:22;;;;;;;4.95;2.15;;;29.80;56.80;;;;;;6944932;28;20062;-78
2022/06/18 12:10:49;;;;;;;6.32;2.35;;;29.70;56.40;;;;;;6937622;28;20056;-78
2022/06/18 12:14:19;;;;;;;6.50;2.60;;;29.70;55.90;;;;;;6940781;28;20211;-79
2022/06/18 12:17:46;;;;;;;6.05;2.40;;;29.90;58.00;;;;;;6940685;28;20056;-79
2022/06/18 12:21:25;;;;;;;6.15;2.20;;;30.10;57.00;;;;;;6933515;28;20053;-78
2022/06/18 12:24:55;;;;;;;4.47;2.35;;;30.30;57.30;;;;;;6940516;28;20053;-78
2022/06/18 12:28:31;;;;;;;5.68;2.30;;;30.50;56.70;;;;;;6941697;28;20077;-78
2022/06/18 12:32:00;;;;;;;7.32;2.72;;;30.50;56.30;;;;;;6941290;28;20403;-78
2022/06/18 12:35:35;;;;;;;5.50;2.30;;;30.70;58.20;;;;;;6939845;28;20049;-78
2022/06/18 12:39:07;;;;;;;5.05;2.38;;;30.80;58.20;;;;;;6939334;28;20406;-78
2022/06/18 12:42:36;;;;;;;6.63;2.72;;;30.80;55.90;;;;;;6942379;28;20073;-76
2022/06/18 12:46:02;;;;;;;10.32;2.50;;;31.00;56.40;;;;;;6943915;28;20057;-76
2022/06/18 12:49:35;;;;;;;5.50;2.55;;;31.10;55.90;;;;;;6944597;28;20487;-75
2022/06/18 12:53:17;;;;;;;10.18;2.55;;;31.20;57.90;;;;;;6942825;28;20103;-79
2022/06/18 12:56:51;;;;;;;6.55;2.70;;;31.30;57.20;;;;;;6942459;28;20069;-80
2022/06/18 13:00:19;;;;;;;5.57;2.75;;;31.30;55.90;;;;;;6938824;28;20057;-82
2022/06/18 13:04:04;;;;;;;9.38;2.80;;;31.50;56.20;;;;;;6939854;28;20049;-81
2022/06/18 13:07:41;;;;;;;6.05;2.65;;;31.60;57.10;;;;;;6934964;28;20049;-82
2022/06/18 13:11:12;;;;;;;7.57;3.05;;;31.60;54.60;;;;;;6943756;28;20055;-81
2022/06/18 13:14:54;;;;;;;12.98;3.00;;;31.60;55.70;;;;;;6944535;28;20045;-82
2022/06/18 13:18:29;;;;;;;6.82;2.40;;;31.80;56.20;;;;;;6942940;28;20140;-80
2022/06/18 13:21:52;;;;;;;8.43;2.60;;;32.00;55.50;;;;;;6945583;28;20573;-81
2022/06/18 13:29:09;;;;;;;8.93;2.88;;;32.40;54.60;;;;;;6943784;28;20049;-80
2022/06/18 13:32:45;;;;;;;8.68;2.60;;;32.60;53.30;;;;;;6943967;28;20049;-80
2022/06/18 13:36:21;;;;;;;8.68;2.45;;;32.70;54.20;;;;;;6942443;28;20045;-80
2022/06/18 13:39:54;;;;;;;9.63;2.80;;;32.70;51.30;;;;;;6942363;28;20076;-80
2022/06/18 13:43:39;;;;;;;10.98;2.95;;;32.80;51.50;;;;;;6941349;28;20046;-81
2022/06/18 13:47:09;;;;;;;12.95;2.75;;;33.10;52.30;;;;;;6942258;28;20103;-81
2022/06/18 13:50:37;;;;;;;14.27;3.25;;;33.20;50.40;;;;;;6942515;28;20053;-80
2022/06/18 13:54:11;;;;;;;18.70;3.20;;;33.40;48.50;;;;;;6941318;28;20048;-79
2022/06/18 13:57:41;;;;;;;16.23;3.28;;;33.50;46.50;;;;;;6942279;28;20084;-80
2022/06/18 14:01:07;;;;;;;14.55;3.83;;;33.50;45.50;;;;;;6942582;28;20045;-78
2022/06/18 14:04:34;;;;;;;16.90;3.53;;;33.60;43.50;;;;;;6948245;28;20053;-80
2022/06/18 14:07:57;;;;;;;14.02;3.83;;;33.60;46.40;;;;;;6950023;28;20053;-79
2022/06/18 14:11:37;;;;;;;17.83;3.78;;;33.80;43.50;;;;;;6953834;28;20076;-79
2022/06/18 14:15:08;;;;;;;18.95;3.33;;;33.80;42.10;;;;;;6934966;28;20050;-79
2022/06/18 14:18:31;;;;;;;;;;;33.90;41.50;;;;;;6942620;28;20041;-78
2022/06/18 14:22:10;;;;;;;12.43;2.85;;;34.00;42.80;;;;;;6906036;28;19964;-78
2022/06/18 14:25:47;;;;;;;12.48;2.60;;;34.10;41.50;;;;;;6926013;28;20084;-80
2022/06/18 14:29:11;;;;;;;16.33;3.03;;;34.20;41.30;;;;;;6922397;28;20045;-80
2022/06/18 14:32:45;;;;;;;17.88;3.88;;;34.20;41.40;;;;;;6917555;28;20081;-83
2022/06/18 14:36:17;;;;;;;18.55;3.33;;;34.30;41.60;;;;;;6918913;28;20049;-80
2022/06/18 14:39:44;;;;;;;;;;;34.50;43.40;;;;;;6933800;28;20080;-80
2022/06/18 14:43:32;;;;;;;18.52;3.80;;;34.60;43.50;;;;;;6935462;28;19959;-81
2022/06/18 14:47:44;;;;;;;12.50;2.70;;;34.70;42.50;;;;;;6946194;28;20049;-80
2022/06/18 14:51:49;;;;;;;15.50;3.60;;;34.80;43.80;;;;;;6939933;28;20189;-80
2022/06/18 14:55:38;;;;;;;19.65;3.35;;;35.00;42.40;;;;;;6928788;28;20048;-79
2022/06/18 14:59:38;;;;;;;19.00;3.20;;;35.00;41.20;;;;;;6929054;28;20038;-79
2022/06/18 15:03:06;;;;;;;13.20;3.08;;;35.10;41.40;;;;;;6924443;28;20507;-81
2022/06/18 15:06:28;;;;;;;14.63;3.90;;;35.20;41.20;;;;;;6932448;28;20049;-79
2022/06/18 15:09:51;;;;;;;15.73;3.15;;;35.20;41.30;;;;;;6904108;28;20104;-80
2022/06/18 15:13:14;;;;;;;19.30;3.65;;;35.30;41.10;;;;;;6916426;28;20073;-78
2022/06/18 15:16:47;;;;;;;19.25;3.65;;;35.30;41.50;;;;;;6916095;28;20136;-77
2022/06/18 15:20:23;;;;;;;21.42;3.53;;;35.30;40.30;;;;;;6916897;28;20333;-77
2022/06/18 15:23:51;;;;;;;16.95;3.40;;;35.30;39.30;;;;;;6912781;28;20112;-77
2022/06/18 15:27:14;;;;;;;15.20;3.25;;;35.50;40.30;;;;;;6937707;28;20081;-78
2022/06/18 15:30:41;;;;;;;17.85;4.03;;;35.50;40.70;;;;;;6924669;28;20136;-76
2022/06/18 15:34:21;;;;;;;16.73;3.35;;;35.40;40.80;;;;;;6927801;28;20395;-77
2022/06/18 15:37:50;;;;;;;14.55;3.00;;;35.70;41.90;;;;;;6928274;28;20156;-78
2022/06/18 15:41:13;;;;;;;14.27;3.30;;;35.80;41.00;;;;;;6919906;28;20104;-79
2022/06/18 15:44:36;;;;;;;17.92;3.22;;;35.90;41.00;;;;;;6924193;28;20169;-76
2022/06/18 15:47:59;;;;;;;18.17;3.30;;;35.90;40.90;;;;;;6928533;28;20041;-76
2022/06/18 15:51:27;;;;;;;20.85;4.20;;;35.80;40.60;;;;;;6919377;28;20041;-77
2022/06/18 15:54:54;;;;;;;17.92;3.45;;;35.90;39.90;;;;;;6922191;28;20050;-77
2022/06/18 15:58:16;;;;;;;19.85;3.78;;;36.20;40.50;;;;;;6939492;28;20042;-76
2022/06/18 16:01:39;;;;;;;16.95;3.40;;;36.50;40.30;;;;;;6930103;28;20088;-76
2022/06/18 16:05:03;;;;;;;15.38;3.55;;;36.90;40.60;;;;;;6928392;28;21144;-78
2022/06/18 16:08:43;;;;;;;21.30;3.15;;;36.60;40.80;;;;;;6941412;28;20407;-79
2022/06/18 16:12:24;;;;;;;15.77;3.50;;;36.50;40.10;;;;;;6942672;28;20060;-75
2022/06/18 16:15:49;;;;;;;23.20;3.97;;;36.30;40.40;;;;;;6944567;28;20045;-77
2022/06/18 16:19:11;;;;;;;13.77;3.83;;;36.30;40.60;;;;;;6944341;28;20041;-78
2022/06/18 16:22:37;;;;;;;15.73;3.70;;;36.30;40.70;;;;;;6944195;28;20483;-76
2022/06/18 16:26:02;;;;;;;16.80;3.53;;;36.30;40.60;;;;;;6946967;28;20053;-79
2022/06/18 16:29:27;;;;;;;15.98;3.38;;;36.40;40.50;;;;;;6938429;28;20051;-79
2022/06/18 16:32:49;;;;;;;18.83;3.45;;;36.40;41.80;;;;;;6945009;28;20104;-79
2022/06/18 16:36:18;;;;;;;22.92;3.40;;;36.40;40.90;;;;;;6945021;28;20505;-78
2022/06/18 16:39:44;;;;;;;14.85;3.35;;;36.40;40.10;;;;;;6941483;28;20041;-76
2022/06/18 16:43:13;;;;;;;15.70;3.15;;;36.30;40.40;;;;;;6920387;28;20057;-76
2022/06/18 16:46:37;;;;;;;16.77;4.07;;;36.20;40.20;;;;;;6937065;28;20407;-79
2022/06/18 16:49:59;;;;;;;20.30;3.83;;;36.20;39.80;;;;;;6944870;28;20479;-76
2022/06/18 16:53:31;;;;;;;19.20;3.53;;;36.20;39.30;;;;;;6929475;28;20060;-81
2022/06/18 16:56:53;;;;;;;15.40;3.55;;;36.20;39.50;;;;;;6923370;28;20111;-82
2022/06/18 17:00:22;;;;;;;16.52;3.08;;;36.30;40.00;;;;;;6930476;28;20084;-79
2022/06/18 17:03:44;;;;;;;16.27;3.75;;;36.20;40.10;;;;;;6935688;28;20106;-79
2022/06/18 17:07:06;;;;;;;17.77;3.42;;;36.10;40.70;;;;;;6939138;28;20050;-80
2022/06/18 17:10:28;;;;;;;20.25;3.40;;;36.20;40.50;;;;;;6939407;28;20053;-78
2022/06/18 17:13:50;;;;;;;20.75;4.40;;;36.00;39.60;;;;;;6922183;28;20084;-80
2022/06/18 17:17:14;;;;;;;13.10;3.35;;;36.00;39.70;;;;;;6938491;28;20069;-77
2022/06/18 17:20:38;;;;;;;16.27;2.72;;;36.10;40.00;;;;;;6923169;28;20041;-78
2022/06/18 17:31:23;;;;;;;15.40;3.28;;;35.90;40.30;;;;;;6936430;28;20053;-78
2022/06/18 17:34:46;;;;;;;12.82;2.95;;;36.00;40.70;;;;;;6943154;28;20052;-79
2022/06/18 17:38:08;;;;;;;15.98;4.25;;;36.10;41.70;;;;;;6941515;28;20073;-76
2022/06/18 17:41:31;;;;;;;21.05;4.88;;;36.10;43.60;;;;;;6942852;28;20100;-79
2022/06/18 17:44:53;;;;;;;14.05;4.22;;;36.00;43.50;;;;;;6943235;28;20053;-84
2022/06/18 17:48:18;;;;;;;11.85;3.45;;;36.00;43.90;;;;;;6915312;28;20069;-82
2022/06/18 17:51:42;;;;;;;15.20;3.95;;;35.90;44.10;;;;;;6944505;28;20085;-81
2022/06/18 17:55:06;;;;;;;14.60;3.67;;;35.90;45.20;;;;;;6935678;28;20184;-77
2022/06/18 17:58:28;;;;;;;14.10;3.10;;;35.90;46.20;;;;;;6940034;28;20168;-78
2022/06/18 18:01:55;;;;;;;15.10;3.55;;;35.80;46.60;;;;;;6919873;28;20061;-82
2022/06/18 18:05:18;;;;;;;17.15;3.55;;;35.80;47.50;;;;;;6930733;28;20613;-82
2022/06/18 18:08:41;;;;;;;14.63;3.95;;;35.80;47.80;;;;;;6932610;28;20091;-80
2022/06/18 18:12:05;;;;;;;14.95;3.50;;;35.70;48.60;;;;;;6938677;28;20076;-81
2022/06/18 18:15:27;;;;;;;12.55;3.22;;;35.60;49.80;;;;;;6937113;28;20116;-81
2022/06/18 18:18:49;;;;;;;16.95;3.40;;;35.50;50.30;;;;;;6937034;28;20104;-80
2022/06/18 18:22:11;;;;;;;13.57;3.00;;;35.30;50.40;;;;;;6946903;28;20537;-81